createdAt,value
2023-03-26T00:00:58.984Z,77.82
2023-03-26T00:03:38.213Z,77.86
2023-03-26T00:06:10.850Z,78.09
2023-03-26T00:08:41.123Z,78.00
2023-03-26T00:11:12.327Z,77.99
2023-03-26T00:13:44.105Z,77.96
2023-03-26T00:16:14.607Z,78.17
2023-03-26T00:18:45.786Z,78.05
2023-03-26T00:21:17.133Z,78.12
2023-03-26T00:23:46.516Z,78.28
2023-03-26T00:26:19.374Z,78.29
2023-03-26T00:28:51.337Z,78.39
2023-03-26T00:31:21.589Z,78.33
2023-03-26T00:33:54.629Z,78.29
2023-03-26T00:36:26.025Z,78.11
2023-03-26T00:38:55.791Z,78.04
2023-03-26T00:41:26.663Z,78.27
2023-03-26T00:43:58.241Z,78.20
2023-03-26T00:46:28.681Z,78.33
2023-03-26T00:49:00.622Z,78.29
2023-03-26T00:51:34.328Z,78.22
2023-03-26T00:54:03.378Z,78.22
2023-03-26T00:56:34.433Z,78.36
2023-03-26T00:59:03.528Z,78.07
2023-03-26T01:01:37.392Z,78.29
2023-03-26T01:04:29.021Z,78.32
2023-03-26T01:07:03.029Z,78.16
2023-03-26T01:09:35.010Z,78.60
2023-03-26T01:12:07.797Z,78.27
2023-03-26T01:14:40.239Z,78.77
2023-03-26T01:17:10.722Z,78.66
2023-03-26T01:19:46.192Z,78.59
2023-03-26T01:22:19.804Z,78.62
2023-03-26T01:24:54.104Z,78.64
2023-03-26T01:30:50.089Z,78.71
2023-03-26T01:33:30.813Z,78.78
2023-03-26T01:36:05.483Z,78.96
2023-03-26T01:38:49.325Z,78.71
2023-03-26T01:41:52.040Z,78.82
2023-03-26T01:44:45.251Z,78.85
2023-03-26T01:47:16.112Z,78.92
2023-03-26T01:49:46.593Z,78.83
2023-03-26T01:52:19.048Z,78.97
2023-03-26T01:54:48.966Z,78.94
2023-03-26T01:57:24.477Z,79.01
2023-03-26T02:00:07.574Z,79.13
2023-03-26T02:02:49.397Z,79.14
2023-03-26T02:05:31.547Z,79.11
2023-03-26T02:08:07.213Z,79.31
2023-03-26T02:10:41.457Z,79.20
2023-03-26T02:13:12.023Z,79.40
2023-03-26T02:15:41.926Z,79.40
2023-03-26T02:18:13.830Z,79.47
2023-03-26T02:20:47.856Z,79.60
2023-03-26T02:23:16.760Z,79.29
2023-03-26T02:25:49.349Z,79.48
2023-03-26T02:28:20.601Z,79.57
2023-03-26T02:30:50.972Z,79.15
2023-03-26T02:33:22.195Z,79.49
2023-03-26T02:35:52.083Z,79.44
2023-03-26T02:38:21.254Z,79.49
2023-03-26T02:40:52.947Z,79.72
2023-03-26T02:43:23.944Z,79.76
2023-03-26T02:45:54.707Z,79.46
2023-03-26T02:48:42.911Z,79.63
2023-03-26T02:51:21.923Z,79.62
2023-03-26T02:54:04.954Z,79.71
2023-03-26T02:56:33.942Z,79.72
2023-03-26T02:59:25.463Z,79.91
2023-03-26T03:02:13.986Z,79.88
2023-03-26T03:04:44.703Z,79.91
2023-03-26T03:07:15.402Z,79.71
2023-03-26T03:09:46.241Z,80.09
2023-03-26T03:12:39.094Z,79.96
2023-03-26T03:18:06.907Z,80.22
2023-03-26T03:20:36.232Z,80.08
2023-03-26T03:23:06.640Z,79.96
2023-03-26T03:25:38.963Z,80.18
2023-03-26T03:28:09.154Z,80.21
2023-03-26T03:30:40.115Z,80.29
2023-03-26T03:33:16.545Z,80.29
2023-03-26T03:35:50.133Z,80.27
2023-03-26T03:38:22.015Z,80.41
2023-03-26T03:40:55.929Z,80.36
2023-03-26T03:43:27.890Z,80.22
2023-03-26T03:46:05.677Z,80.43
2023-03-26T03:48:41.503Z,80.59
2023-03-26T03:51:12.629Z,80.45
2023-03-26T03:54:02.380Z,80.56
2023-03-26T03:56:48.214Z,80.68
2023-03-26T03:59:47.809Z,80.65
2023-03-26T04:02:26.916Z,80.55
2023-03-26T04:05:01.374Z,80.69
2023-03-26T04:07:32.771Z,80.54
2023-03-26T04:10:09.813Z,80.79
2023-03-26T04:12:59.796Z,80.57
2023-03-26T04:15:44.014Z,80.92
2023-03-26T04:18:38.687Z,80.85
2023-03-26T04:21:16.186Z,80.54
2023-03-26T04:23:46.254Z,80.69
2023-03-26T04:26:26.552Z,80.81
2023-03-26T04:29:22.440Z,80.54
2023-03-26T04:31:52.560Z,80.72
2023-03-26T04:34:27.586Z,80.72
2023-03-26T04:37:14.733Z,80.85
2023-03-26T04:39:46.492Z,81.07
2023-03-26T04:42:38.475Z,80.95
2023-03-26T04:45:23.863Z,80.80
2023-03-26T04:48:01.152Z,81.07
2023-03-26T04:50:32.382Z,80.77
2023-03-26T04:53:03.315Z,81.37
2023-03-26T04:56:12.221Z,80.92
2023-03-26T04:59:11.083Z,80.87
2023-03-26T05:01:42.306Z,81.19
2023-03-26T05:04:15.029Z,81.06
2023-03-26T05:06:45.299Z,81.16
2023-03-26T05:09:23.675Z,80.97
2023-03-26T05:12:13.245Z,81.00
2023-03-26T05:14:55.406Z,81.28
2023-03-26T05:18:00.269Z,81.50
2023-03-26T05:20:35.108Z,81.41
2023-03-26T05:23:05.017Z,81.21
2023-03-26T05:25:37.735Z,81.08
2023-03-26T05:28:13.473Z,81.25
2023-03-26T05:31:03.553Z,81.45
2023-03-26T05:33:36.689Z,81.62
2023-03-26T05:36:15.757Z,81.64
2023-03-26T05:38:50.012Z,81.78
2023-03-26T05:41:40.889Z,81.67
2023-03-26T05:44:10.671Z,81.74
2023-03-26T05:46:41.694Z,81.73
2023-03-26T05:49:14.845Z,81.49
2023-03-26T05:51:47.290Z,81.56
2023-03-26T05:54:32.694Z,81.43
2023-03-26T05:57:42.795Z,81.82
2023-03-26T06:01:03.239Z,81.59
2023-03-26T06:03:37.392Z,81.63
2023-03-26T06:06:21.103Z,81.46
2023-03-26T06:09:01.691Z,81.63
2023-03-26T06:11:32.488Z,81.55
2023-03-26T06:14:03.200Z,81.66
2023-03-26T06:16:35.372Z,81.58
2023-03-26T06:19:20.143Z,81.89
2023-03-26T06:21:53.245Z,81.69
2023-03-26T06:24:39.235Z,81.72
2023-03-26T06:27:24.310Z,81.76
2023-03-26T06:30:14.036Z,81.75
2023-03-26T06:33:10.545Z,81.79
2023-03-26T06:35:47.129Z,81.97
2023-03-26T06:38:18.040Z,81.74
2023-03-26T06:40:48.229Z,81.78
2023-03-26T06:43:26.994Z,81.96
2023-03-26T06:46:18.071Z,81.97
2023-03-26T06:48:56.747Z,81.88
2023-03-26T06:51:50.005Z,81.91
2023-03-26T06:54:33.066Z,82.11
2023-03-26T06:57:35.285Z,82.15
2023-03-26T07:00:31.038Z,82.13
2023-03-26T07:03:18.633Z,81.97
2023-03-26T07:06:07.591Z,82.11
2023-03-26T07:08:57.858Z,82.31
2023-03-26T07:12:03.930Z,82.32
2023-03-26T07:14:53.152Z,82.43
2023-03-26T07:18:33.804Z,82.29
2023-03-26T07:21:07.704Z,82.53
2023-03-26T07:23:38.092Z,82.39
2023-03-26T07:26:30.160Z,82.28
2023-03-26T07:29:25.377Z,82.39
2023-03-26T07:32:11.679Z,82.43
2023-03-26T07:34:52.151Z,82.40
2023-03-26T07:38:01.545Z,82.29
2023-03-26T07:41:00.758Z,82.57
2023-03-26T07:43:59.389Z,82.23
2023-03-26T07:46:32.403Z,82.62
2023-03-26T07:49:39.321Z,82.67
2023-03-26T07:52:18.725Z,82.78
2023-03-26T07:54:48.126Z,82.57
2023-03-26T07:58:01.852Z,82.76
2023-03-26T08:01:02.606Z,82.71
2023-03-26T08:03:43.007Z,82.73
2023-03-26T08:06:51.564Z,82.55
2023-03-26T08:10:00.466Z,82.46
2023-03-26T08:12:52.741Z,82.09
2023-03-26T08:15:39.600Z,82.49
2023-03-26T08:18:27.767Z,82.25
2023-03-26T08:21:01.934Z,82.06
2023-03-26T08:23:50.406Z,82.40
2023-03-26T08:26:29.372Z,81.82
2023-03-26T08:29:05.655Z,82.19
2023-03-26T08:31:40.825Z,82.10
2023-03-26T08:34:12.687Z,82.48
2023-03-26T08:36:43.583Z,82.44
2023-03-26T08:39:13.602Z,82.59
2023-03-26T08:41:53.713Z,82.39
2023-03-26T08:44:24.443Z,82.53
2023-03-26T08:47:16.045Z,82.51
2023-03-26T08:50:04.897Z,82.79
2023-03-26T08:52:44.442Z,83.16
2023-03-26T08:55:27.655Z,83.19
2023-03-26T08:58:18.188Z,83.36
2023-03-26T09:01:07.892Z,82.90
2023-03-26T09:04:00.593Z,82.83
2023-03-26T09:06:50.504Z,81.93
2023-03-26T09:09:24.280Z,80.41
2023-03-26T09:12:02.555Z,79.77
2023-03-26T09:14:51.822Z,79.33
2023-03-26T09:17:52.391Z,79.34
2023-03-26T09:20:54.934Z,79.66
2023-03-26T09:23:56.062Z,78.98
2023-03-26T09:26:50.976Z,76.87
2023-03-26T09:29:43.726Z,74.15
2023-03-26T09:32:17.381Z,72.04
2023-03-26T09:35:02.353Z,72.65
2023-03-26T09:37:56.633Z,74.83
2023-03-26T09:40:39.079Z,75.32
2023-03-26T09:43:14.874Z,75.62
2023-03-26T09:45:53.630Z,76.13
2023-03-26T09:48:27.275Z,76.71
2023-03-26T09:51:07.122Z,76.85
2023-03-26T09:53:37.920Z,76.91
2023-03-26T09:56:28.394Z,77.77
2023-03-26T09:59:09.321Z,77.76
2023-03-26T10:02:05.543Z,77.53
2023-03-26T10:04:59.984Z,76.95
2023-03-26T10:07:48.178Z,76.63
2023-03-26T10:10:39.907Z,76.86
2023-03-26T10:13:18.292Z,75.69
2023-03-26T10:16:07.305Z,74.04
2023-03-26T10:22:39.695Z,76.26
2023-03-26T10:25:21.612Z,76.37
2023-03-26T10:28:10.656Z,74.48
2023-03-26T10:30:59.461Z,72.94
2023-03-26T10:33:33.248Z,73.18
2023-03-26T10:36:23.259Z,72.48
2023-03-26T10:38:53.426Z,73.80
2023-03-26T10:41:33.372Z,73.38
2023-03-26T10:44:30.465Z,73.09
2023-03-26T10:47:14.702Z,73.15
2023-03-26T10:50:23.174Z,73.90
2023-03-26T10:53:29.730Z,74.14
2023-03-26T10:56:22.879Z,74.69
2023-03-26T10:59:02.360Z,74.70
2023-03-26T11:01:41.316Z,74.67
2023-03-26T11:04:39.130Z,75.01
2023-03-26T11:07:26.936Z,75.09
2023-03-26T11:10:16.035Z,74.88
2023-03-26T11:12:48.407Z,75.05
2023-03-26T11:15:18.132Z,74.34
2023-03-26T11:17:55.537Z,73.58
2023-03-26T11:20:47.814Z,73.60
2023-03-26T11:23:16.786Z,73.94
2023-03-26T11:25:53.285Z,73.43
2023-03-26T11:28:31.909Z,72.54
2023-03-26T11:31:05.172Z,71.77
2023-03-26T11:33:37.632Z,70.62
2023-03-26T11:36:21.457Z,70.38
2023-03-26T11:38:52.738Z,72.15
2023-03-26T11:41:28.318Z,72.05
2023-03-26T11:44:08.995Z,71.50
2023-03-26T11:46:40.736Z,71.32
2023-03-26T11:49:15.283Z,71.51
2023-03-26T11:51:48.070Z,72.15
2023-03-26T11:54:19.038Z,72.56
2023-03-26T11:57:18.481Z,72.35
2023-03-26T11:59:57.603Z,72.10
2023-03-26T12:02:33.002Z,72.01
2023-03-26T12:05:15.521Z,71.37
2023-03-26T12:07:50.522Z,70.85
2023-03-26T12:10:24.274Z,71.67
2023-03-26T12:12:59.012Z,71.63
2023-03-26T12:15:30.326Z,72.03
2023-03-26T12:21:46.554Z,72.32
2023-03-26T12:24:28.790Z,71.99
2023-03-26T12:27:21.126Z,71.32
2023-03-26T12:29:55.737Z,70.92
2023-03-26T12:32:32.577Z,70.84
2023-03-26T12:48:03.953Z,70.02
2023-03-26T12:50:51.675Z,70.13
2023-03-26T12:53:33.845Z,70.82
2023-03-26T12:56:08.667Z,70.54
2023-03-26T12:58:51.844Z,71.48
2023-03-26T13:01:38.241Z,71.05
2023-03-26T13:04:15.983Z,70.00
2023-03-26T13:07:02.052Z,69.46
2023-03-26T13:09:52.881Z,69.56
2023-03-26T13:12:35.531Z,69.63
2023-03-26T13:15:15.572Z,69.84
2023-03-26T13:18:10.477Z,70.53
2023-03-26T13:20:41.037Z,69.83
2023-03-26T13:23:37.625Z,69.11
2023-03-26T13:26:25.985Z,69.13
2023-03-26T13:29:15.627Z,69.36
2023-03-26T13:32:06.481Z,68.68
2023-03-26T13:34:40.045Z,68.25
2023-03-26T13:37:27.869Z,68.11
2023-03-26T13:40:05.621Z,68.32
2023-03-26T13:42:41.265Z,68.17
2023-03-26T13:45:29.019Z,68.18
2023-03-26T13:48:01.158Z,68.27
2023-03-26T13:50:44.899Z,67.95
2023-03-26T13:53:20.489Z,68.43
2023-03-26T13:55:55.056Z,68.91
2023-03-26T13:58:42.915Z,69.11
2023-03-26T14:01:13.157Z,69.33
2023-03-26T14:04:01.390Z,69.60
2023-03-26T14:06:37.200Z,69.60
2023-03-26T14:09:11.781Z,69.75
2023-03-26T14:11:53.702Z,69.87
2023-03-26T14:14:45.167Z,69.85
2023-03-26T14:21:52.657Z,69.92
2023-03-26T14:24:48.986Z,70.23
2023-03-26T14:27:46.004Z,69.94
2023-03-26T14:30:23.514Z,70.00
2023-03-26T14:33:13.322Z,69.61
2023-03-26T14:36:05.387Z,69.26
2023-03-26T14:39:01.728Z,69.29
2023-03-26T14:41:51.237Z,69.46
2023-03-26T14:44:55.740Z,68.68
2023-03-26T14:47:34.436Z,68.50
2023-03-26T14:50:32.815Z,68.93
2023-03-26T14:53:16.637Z,68.95
2023-03-26T14:56:14.380Z,69.28
2023-03-26T14:58:55.722Z,69.77
2023-03-26T15:01:58.595Z,70.25
2023-03-26T15:04:46.349Z,69.85
2023-03-26T15:07:50.095Z,69.22
2023-03-26T15:10:41.560Z,69.08
2023-03-26T15:13:44.003Z,68.81
2023-03-26T15:16:42.461Z,68.72
2023-03-26T15:19:41.984Z,69.22
2023-03-26T15:22:33.515Z,68.86
2023-03-26T15:25:27.178Z,69.47
2023-03-26T15:28:22.707Z,69.01
2023-03-26T15:31:18.145Z,68.75
2023-03-26T15:34:05.138Z,68.68
2023-03-26T15:37:02.708Z,68.95
2023-03-26T15:40:12.130Z,68.91
2023-03-26T15:43:10.388Z,68.67
2023-03-26T15:45:49.003Z,68.68
2023-03-26T15:48:59.016Z,68.93
2023-03-26T15:51:54.248Z,68.98
2023-03-26T15:54:43.523Z,68.05
2023-03-26T15:57:22.705Z,68.28
2023-03-26T16:00:17.651Z,68.43
2023-03-26T16:03:36.244Z,68.61
2023-03-26T16:06:29.738Z,68.26
2023-03-26T16:09:26.343Z,68.62
2023-03-26T16:12:02.895Z,68.87
2023-03-26T16:14:36.925Z,68.81
2023-03-26T16:17:17.275Z,68.80
2023-03-26T16:20:09.200Z,68.85
2023-03-26T16:22:54.652Z,69.06
2023-03-26T16:25:30.764Z,69.00
2023-03-26T16:28:10.258Z,69.02
2023-03-26T16:30:42.881Z,69.30
2023-03-26T16:33:17.467Z,69.28
2023-03-26T16:36:03.355Z,69.12
2023-03-26T16:38:51.160Z,69.05
2023-03-26T16:41:35.198Z,68.78
2023-03-26T16:44:14.980Z,68.65
2023-03-26T16:47:06.395Z,68.81
2023-03-26T16:50:07.517Z,68.75
2023-03-26T16:52:47.302Z,68.74
2023-03-26T16:55:24.078Z,68.70
2023-03-26T16:58:05.215Z,68.72
2023-03-26T17:00:56.153Z,68.70
2023-03-26T17:03:42.473Z,68.64
2023-03-26T17:06:26.874Z,68.64
2023-03-26T17:09:17.572Z,68.54
2023-03-26T17:11:47.636Z,68.65
2023-03-26T17:14:18.318Z,68.59
2023-03-26T17:17:09.121Z,68.77
2023-03-26T17:19:51.695Z,69.19
2023-03-26T17:22:32.100Z,69.09
2023-03-26T17:25:27.379Z,69.54
2023-03-26T17:28:28.873Z,69.28
2023-03-26T17:31:05.901Z,69.39
2023-03-26T17:33:40.879Z,69.65
2023-03-26T17:36:15.870Z,69.25
2023-03-26T17:38:48.166Z,69.31
2023-03-26T17:41:41.479Z,69.13
2023-03-26T17:44:38.502Z,69.38
2023-03-26T17:47:33.817Z,69.33
2023-03-26T17:50:24.989Z,69.20
2023-03-26T17:52:59.087Z,69.35
2023-03-26T17:55:35.803Z,69.22
2023-03-26T17:58:48.607Z,69.41
2023-03-26T18:01:22.827Z,69.69
2023-03-26T18:03:57.567Z,69.38
2023-03-26T18:06:42.961Z,69.37
2023-03-26T18:09:33.954Z,69.33
2023-03-26T18:12:20.950Z,69.34
2023-03-26T18:15:05.786Z,69.63
2023-03-26T18:20:56.215Z,69.24
2023-03-26T18:23:30.065Z,69.35
2023-03-26T18:26:10.660Z,69.53
2023-03-26T18:28:46.466Z,69.54
2023-03-26T18:31:19.630Z,69.23
2023-03-26T18:34:02.920Z,69.43
2023-03-26T18:36:34.192Z,69.29
2023-03-26T18:39:07.529Z,69.26
2023-03-26T18:41:43.218Z,69.76
2023-03-26T18:44:18.568Z,69.63
2023-03-26T18:46:52.379Z,69.69
2023-03-26T18:49:25.226Z,69.71
2023-03-26T18:51:58.942Z,69.79
2023-03-26T18:54:34.405Z,69.56
2023-03-26T18:57:16.248Z,69.90
2023-03-26T18:59:55.374Z,69.72
2023-03-26T19:02:27.925Z,69.67
2023-03-26T19:05:00.303Z,69.78
2023-03-26T19:07:34.368Z,69.53
2023-03-26T19:10:05.901Z,69.52
2023-03-26T19:12:44.099Z,69.94
2023-03-26T19:15:19.945Z,69.92
2023-03-26T19:18:05.392Z,70.01
2023-03-26T19:20:47.889Z,69.96
2023-03-26T19:23:25.317Z,70.11
2023-03-26T19:26:04.566Z,70.07
2023-03-26T19:28:42.654Z,70.01
2023-03-26T19:31:18.923Z,70.18
2023-03-26T19:34:21.936Z,70.03
2023-03-26T19:37:04.968Z,70.18
2023-03-26T19:39:39.901Z,70.19
2023-03-26T19:42:19.267Z,70.09
2023-03-26T19:44:54.784Z,70.12
2023-03-26T19:47:46.160Z,70.18
2023-03-26T19:50:27.911Z,70.25
2023-03-26T19:53:16.859Z,70.13
2023-03-26T19:56:15.806Z,70.13
2023-03-26T19:58:49.266Z,70.23
2023-03-26T20:01:26.155Z,70.18
2023-03-26T20:04:10.700Z,70.20
2023-03-26T20:06:44.315Z,70.48
2023-03-26T20:09:22.172Z,70.48
2023-03-26T20:11:56.075Z,70.54
2023-03-26T20:14:45.438Z,70.82
2023-03-26T20:17:32.131Z,70.44
2023-03-26T20:20:04.268Z,70.55
2023-03-26T20:22:53.537Z,70.54
2023-03-26T20:25:44.555Z,70.39
2023-03-26T20:28:15.955Z,70.36
2023-03-26T20:31:02.546Z,70.39
2023-03-26T20:33:39.658Z,70.52
2023-03-26T20:36:12.111Z,71.18
2023-03-26T20:38:42.807Z,71.15
2023-03-26T20:41:18.961Z,71.35
2023-03-26T20:43:49.081Z,71.44
2023-03-26T20:46:21.171Z,71.57
2023-03-26T20:48:55.452Z,71.88
2023-03-26T20:51:27.194Z,71.82
2023-03-26T20:53:58.718Z,72.15
2023-03-26T20:56:31.128Z,72.17
2023-03-26T20:59:10.511Z,72.09
2023-03-26T21:01:44.528Z,72.40
2023-03-26T21:04:14.146Z,72.44
2023-03-26T21:06:47.702Z,72.63
2023-03-26T21:09:19.154Z,72.38
2023-03-26T21:11:56.111Z,72.55
2023-03-26T21:14:26.599Z,72.52
2023-03-26T21:16:57.858Z,72.47
2023-03-26T21:19:29.824Z,72.32
2023-03-26T21:22:09.928Z,72.33
2023-03-26T21:24:59.876Z,71.95
2023-03-26T21:27:36.685Z,71.81
2023-03-26T21:30:12.332Z,72.12
2023-03-26T21:32:45.180Z,71.97
2023-03-26T21:35:16.704Z,72.06
2023-03-26T21:37:49.170Z,71.92
2023-03-26T21:40:19.977Z,72.07
2023-03-26T21:42:53.621Z,71.99
2023-03-26T21:45:24.271Z,72.02
2023-03-26T21:47:57.703Z,72.11
2023-03-26T21:50:31.527Z,71.93
2023-03-26T21:53:03.241Z,72.04
2023-03-26T21:55:40.596Z,71.89
2023-03-26T21:58:18.869Z,71.99
2023-03-26T22:00:47.880Z,71.78
2023-03-26T22:03:29.255Z,72.16
2023-03-26T22:06:00.605Z,71.77
2023-03-26T22:08:29.390Z,71.91
2023-03-26T22:11:01.510Z,71.76
2023-03-26T22:13:32.206Z,71.67
2023-03-26T22:16:01.382Z,71.73
2023-03-26T22:22:54.915Z,71.69
2023-03-26T22:25:24.608Z,71.46
2023-03-26T22:27:55.720Z,71.43
2023-03-26T22:30:26.238Z,71.30
2023-03-26T22:32:59.153Z,71.28
2023-03-26T22:35:30.164Z,71.47
2023-03-26T22:38:01.356Z,71.26
2023-03-26T22:40:31.620Z,71.33
2023-03-26T22:43:01.043Z,71.16
2023-03-26T22:45:30.528Z,71.59
2023-03-26T22:48:04.597Z,71.19
2023-03-26T22:50:38.552Z,71.38
2023-03-26T22:53:08.953Z,71.61
2023-03-26T22:55:40.267Z,71.43
2023-03-26T22:58:09.749Z,71.42
2023-03-26T23:00:40.458Z,71.42
2023-03-26T23:03:10.198Z,71.43
2023-03-26T23:05:40.273Z,71.41
2023-03-26T23:08:11.620Z,71.27
2023-03-26T23:10:44.112Z,71.35
2023-03-26T23:13:13.119Z,71.26
2023-03-26T23:15:43.373Z,71.12
2023-03-26T23:18:43.959Z,71.15
2023-03-26T23:21:14.972Z,71.19
2023-03-26T23:23:46.022Z,71.21
2023-03-26T23:26:16.885Z,71.20
2023-03-26T23:28:48.182Z,71.29
2023-03-26T23:31:17.360Z,71.28
2023-03-26T23:33:51.210Z,71.58
2023-03-26T23:36:21.366Z,71.27
2023-03-26T23:38:52.162Z,71.41
2023-03-26T23:41:23.273Z,71.32
2023-03-26T23:43:55.776Z,71.33
2023-03-26T23:46:31.177Z,71.26
2023-03-26T23:49:02.716Z,71.24
2023-03-26T23:51:33.581Z,71.03
2023-03-26T23:54:05.601Z,70.97
2023-03-26T23:56:34.516Z,70.70
2023-03-26T23:59:05.241Z,70.82
